Time;durP1;ratioP1;P1;durP2;ratioP2;P2;SDS_P1;SDS_P2;PMS_P1;PMS_P2;Temp;Humidity;BMP_temperature;BMP_pressure;BME280_temperature;BME280_humidity;BME280_pressure;Samples;Min_cycle;Max_cycle;Signal;HPM_P1;HPM_P2
2023/03/28 00:00:16;;;;;;;3.55;1.83;;;;;;;;;;12730772;23;20028;-81
2023/03/28 00:05:20;;;;;;;2.60;1.58;;;;;;;;;;12734699;23;20104;-81
2023/03/28 00:10:24;;;;;;;3.92;1.75;;;;;;;;;;12700910;23;20359;-81
2023/03/28 00:15:27;;;;;;;2.45;1.30;;;;;;;;;;12700744;23;20053;-81
2023/03/28 00:20:32;;;;;;;2.85;1.40;;;;;;;;;;12700552;23;20025;-80
2023/03/28 00:25:38;;;;;;;2.72;1.67;;;;;;;;;;12700923;23;20025;-81
2023/03/28 00:30:42;;;;;;;2.42;1.30;;;;;;;;;;12726842;23;20026;-81
2023/03/28 00:35:47;;;;;;;1.15;1.05;;;;;;;;;;12699253;23;20041;-81
2023/03/28 00:40:54;;;;;;;1.55;0.80;;;;;;;;;;12700553;23;20021;-81
2023/03/28 00:45:58;;;;;;;1.63;0.88;;;;;;;;;;12699411;23;20025;-81
2023/03/28 00:51:10;;;;;;;1.73;1.20;;;;;;;;;;12698590;23;20032;-81
2023/03/28 00:56:18;;;;;;;2.97;1.23;;;;;;;;;;12725979;23;20092;-81
2023/03/28 01:01:21;;;;;;;1.30;1.00;;;;;;;;;;12699410;23;20028;-81
2023/03/28 01:06:26;;;;;;;1.90;1.27;;;;;;;;;;12699745;23;20032;-81
2023/03/28 01:11:31;;;;;;;1.70;1.10;;;;;;;;;;12700720;23;20116;-82
2023/03/28 01:16:40;;;;;;;2.00;1.23;;;;;;;;;;12700354;23;20037;-80
2023/03/28 01:22:17;;;;;;;4.13;1.33;;;;;;;;;;12699838;23;20026;-81
2023/03/28 01:27:26;;;;;;;1.40;1.30;;;;;;;;;;12699434;23;20022;-81
2023/03/28 01:33:03;;;;;;;2.22;1.17;;;;;;;;;;12699613;23;20109;-81
2023/03/28 01:38:14;;;;;;;2.10;1.23;;;;;;;;;;12678994;23;20060;-81
2023/03/28 01:43:29;;;;;;;2.78;1.58;;;;;;;;;;12700356;23;20371;-81
2023/03/28 01:48:41;;;;;;;2.72;1.45;;;;;;;;;;12700915;23;20041;-81
2023/03/28 01:53:51;;;;;;;2.80;1.30;;;;;;;;;;12700938;23;20059;-81
2023/03/28 01:59:00;;;;;;;2.63;1.50;;;;;;;;;;12728592;23;20467;-81
2023/03/28 02:04:28;;;;;;;2.55;1.45;;;;;;;;;;12727090;23;20029;-81
2023/03/28 02:09:36;;;;;;;5.00;1.30;;;;;;;;;;12701153;23;20031;-81
2023/03/28 02:14:57;;;;;;;1.55;1.00;;;;;;;;;;12705936;23;20041;-81
2023/03/28 02:20:24;;;;;;;1.25;1.15;;;;;;;;;;12756543;23;20033;-80
2023/03/28 02:25:59;;;;;;;4.28;1.83;;;;;;;;;;12662736;23;20032;-80
2023/03/28 02:31:31;;;;;;;2.17;1.48;;;;;;;;;;12714739;23;20442;-80
2023/03/28 02:36:42;;;;;;;1.73;1.35;;;;;;;;;;12716273;23;20030;-80
2023/03/28 02:42:03;;;;;;;3.25;1.80;;;;;;;;;;12717234;23;20021;-80
2023/03/28 02:47:16;;;;;;;2.25;1.73;;;;;;;;;;12741175;23;20359;-80
2023/03/28 02:52:35;;;;;;;5.40;2.00;;;;;;;;;;12739281;23;20522;-81
2023/03/28 02:57:45;;;;;;;2.47;1.33;;;;;;;;;;12715802;23;20030;-80
2023/03/28 03:02:51;;;;;;;4.78;1.73;;;;;;;;;;12716278;23;20049;-80
2023/03/28 03:07:54;;;;;;;2.30;1.60;;;;;;;;;;12715352;23;20056;-80
2023/03/28 03:13:00;;;;;;;2.67;1.38;;;;;;;;;;12716325;23;20073;-80
2023/03/28 03:18:04;;;;;;;4.20;1.27;;;;;;;;;;12718383;23;20053;-80
2023/03/28 03:23:09;;;;;;;3.35;1.10;;;;;;;;;;12719401;23;20025;-80
2023/03/28 03:28:15;;;;;;;3.70;1.30;;;;;;;;;;12719518;23;20032;-81
2023/03/28 03:33:18;;;;;;;2.77;1.50;;;;;;;;;;12718883;23;20025;-80
2023/03/28 03:38:24;;;;;;;2.20;1.20;;;;;;;;;;12720823;23;20454;-81
2023/03/28 03:43:29;;;;;;;2.22;1.20;;;;;;;;;;12762827;23;20013;-80
2023/03/28 03:48:33;;;;;;;2.28;1.40;;;;;;;;;;12723705;23;20056;-80
2023/03/28 03:53:38;;;;;;;1.98;1.30;;;;;;;;;;12726711;23;20073;-81
2023/03/28 03:58:48;;;;;;;2.05;1.25;;;;;;;;;;12730979;23;20034;-80
2023/03/28 04:03:51;;;;;;;1.77;1.27;;;;;;;;;;12744113;23;20032;-81
2023/03/28 04:09:00;;;;;;;2.65;1.45;;;;;;;;;;12708254;23;20037;-81
2023/03/28 04:14:37;;;;;;;4.05;1.30;;;;;;;;;;12734869;23;20077;-84
2023/03/28 04:20:00;;;;;;;2.30;1.23;;;;;;;;;;12740889;23;20022;-84
2023/03/28 04:25:05;;;;;;;1.50;1.17;;;;;;;;;;12710132;23;20029;-83
2023/03/28 04:30:16;;;;;;;3.17;1.98;;;;;;;;;;12712062;23;20069;-83
2023/03/28 04:35:42;;;;;;;2.67;1.70;;;;;;;;;;12693787;23;20025;-83
2023/03/28 04:40:48;;;;;;;4.10;2.33;;;;;;;;;;12689613;23;20491;-81
2023/03/28 04:46:13;;;;;;;3.70;1.47;;;;;;;;;;12689410;23;20112;-82
2023/03/28 04:51:17;;;;;;;3.55;1.90;;;;;;;;;;12692107;23;20030;-85
2023/03/28 04:56:21;;;;;;;3.03;2.22;;;;;;;;;;12704568;23;20053;-82
2023/03/28 05:01:26;;;;;;;3.58;2.20;;;;;;;;;;12709506;23;20032;-82
2023/03/28 05:06:49;;;;;;;4.40;2.03;;;;;;;;;;12755964;23;20021;-81
2023/03/28 05:11:53;;;;;;;3.78;1.67;;;;;;;;;;12705518;23;20021;-81
2023/03/28 05:16:58;;;;;;;3.08;1.75;;;;;;;;;;12701025;23;20076;-81
2023/03/28 05:22:21;;;;;;;1.92;1.38;;;;;;;;;;12703351;23;20021;-82
2023/03/28 05:27:25;;;;;;;3.50;2.10;;;;;;;;;;12703239;23;20021;-82
2023/03/28 05:32:31;;;;;;;3.47;1.98;;;;;;;;;;12702278;23;20033;-82
2023/03/28 05:37:36;;;;;;;5.25;2.60;;;;;;;;;;12696876;23;20025;-83
2023/03/28 05:42:40;;;;;;;4.18;2.13;;;;;;;;;;12694517;23;20030;-82
2023/03/28 05:47:54;;;;;;;4.55;2.53;;;;;;;;;;12705407;23;20025;-84
2023/03/28 05:52:59;;;;;;;5.72;2.42;;;;;;;;;;12735599;23;20032;-84
2023/03/28 05:58:02;;;;;;;6.53;3.45;;;;;;;;;;12707570;23;20524;-84
2023/03/28 06:03:15;;;;;;;10.25;4.47;;;;;;;;;;12707563;23;20017;-84
2023/03/28 06:08:19;;;;;;;8.25;3.72;;;;;;;;;;12705796;23;20029;-84
2023/03/28 06:13:23;;;;;;;7.45;3.97;;;;;;;;;;12706292;23;20542;-84
2023/03/28 06:18:28;;;;;;;10.25;3.97;;;;;;;;;;12708209;23;20105;-84
2023/03/28 06:23:32;;;;;;;7.20;3.58;;;;;;;;;;12713633;23;20029;-82
2023/03/28 06:28:36;;;;;;;9.63;4.30;;;;;;;;;;12701529;23;20080;-84
2023/03/28 06:33:54;;;;;;;6.97;3.75;;;;;;;;;;12700246;23;20025;-84
2023/03/28 06:39:00;;;;;;;;;;;;;;;;;;12700390;23;20507;-84
2023/03/28 06:44:05;;;;;;;4.63;3.17;;;;;;;;;;12706559;23;20510;-86
2023/03/28 06:49:33;;;;;;;5.10;2.95;;;;;;;;;;12727676;23;20371;-84
2023/03/28 06:54:57;;;;;;;5.63;3.03;;;;;;;;;;12721258;23;20026;-85
2023/03/28 07:00:02;;;;;;;4.53;2.58;;;;;;;;;;12720981;23;20100;-85
2023/03/28 07:05:27;;;;;;;3.25;1.90;;;;;;;;;;12735790;23;20025;-83
2023/03/28 07:10:31;;;;;;;2.63;1.50;;;;;;;;;;12694915;23;20021;-84
2023/03/28 07:15:36;;;;;;;2.65;1.30;;;;;;;;;;12694973;23;20025;-84
2023/03/28 07:20:41;;;;;;;3.20;1.35;;;;;;;;;;12694195;23;20875;-84
2023/03/28 07:25:46;;;;;;;2.63;1.30;;;;;;;;;;12720620;23;20025;-84
2023/03/28 07:30:52;;;;;;;1.70;0.88;;;;;;;;;;12693923;23;20025;-85
2023/03/28 07:35:57;;;;;;;2.47;0.85;;;;;;;;;;12693770;23;20360;-82
2023/03/28 07:41:02;;;;;;;1.43;0.87;;;;;;;;;;12722153;23;20048;-84
2023/03/28 07:46:08;;;;;;;1.60;0.90;;;;;;;;;;12694434;23;20053;-85
2023/03/28 07:51:14;;;;;;;1.25;0.90;;;;;;;;;;12696210;23;20028;-85
2023/03/28 07:56:17;;;;;;;2.05;1.10;;;;;;;;;;12693244;23;20033;-83
2023/03/28 08:01:33;;;;;;;3.97;1.23;;;;;;;;;;12693075;23;20638;-82
2023/03/28 08:06:40;;;;;;;1.40;0.65;;;;;;;;;;12693752;23;20021;-82
2023/03/28 08:11:45;;;;;;;1.73;0.77;;;;;;;;;;12693049;23;20025;-83
2023/03/28 08:16:49;;;;;;;1.50;0.70;;;;;;;;;;12692271;23;20029;-83
2023/03/28 08:21:54;;;;;;;3.15;1.10;;;;;;;;;;12690348;23;20026;-83
2023/03/28 08:26:58;;;;;;;3.78;1.02;;;;;;;;;;12691218;23;20025;-85
2023/03/28 08:32:05;;;;;;;1.90;0.80;;;;;;;;;;12692859;23;20037;-86
2023/03/28 08:37:10;;;;;;;2.28;0.93;;;;;;;;;;12695178;23;20100;-86
2023/03/28 08:42:32;;;;;;;1.70;0.57;;;;;;;;;;12739013;23;20045;-86
2023/03/28 08:47:42;;;;;;;4.05;0.70;;;;;;;;;;12697635;23;20029;-86
2023/03/28 08:52:48;;;;;;;1.98;0.80;;;;;;;;;;12698937;23;20045;-84
2023/03/28 08:57:54;;;;;;;3.85;0.98;;;;;;;;;;12692947;23;20028;-84
2023/03/28 09:02:58;;;;;;;1.93;0.80;;;;;;;;;;12739016;23;20117;-86
2023/03/28 09:08:37;;;;;;;4.05;1.20;;;;;;;;;;12700307;23;20056;-84
2023/03/28 09:13:48;;;;;;;1.73;0.77;;;;;;;;;;12580260;23;20053;-86
2023/03/28 09:19:14;;;;;;;2.50;0.90;;;;;;;;;;12692995;23;20080;-84
2023/03/28 09:24:43;;;;;;;2.30;0.75;;;;;;;;;;12695618;23;20470;-84
2023/03/28 09:29:51;;;;;;;2.03;0.70;;;;;;;;;;12695658;23;20032;-86
2023/03/28 09:34:55;;;;;;;2.70;0.83;;;;;;;;;;12697297;23;20052;-84
2023/03/28 09:40:13;;;;;;;1.25;0.60;;;;;;;;;;12695884;23;20025;-84
2023/03/28 09:45:44;;;;;;;4.88;1.00;;;;;;;;;;12696073;23;20105;-83
2023/03/28 09:51:19;;;;;;;5.07;1.13;;;;;;;;;;12721345;23;20072;-84
2023/03/28 09:56:29;;;;;;;2.17;0.80;;;;;;;;;;12696275;23;20036;-84
2023/03/28 10:01:44;;;;;;;2.67;0.80;;;;;;;;;;12697377;23;20763;-86
2023/03/28 10:07:30;;;;;;;1.65;0.70;;;;;;;;;;12739419;23;20061;-85
2023/03/28 10:12:48;;;;;;;3.17;0.77;;;;;;;;;;12695637;23;20466;-84
2023/03/28 10:17:52;;;;;;;2.65;0.80;;;;;;;;;;12697265;23;20033;-85
2023/03/28 10:23:04;;;;;;;3.15;0.88;;;;;;;;;;12696985;23;20477;-85
2023/03/28 10:28:17;;;;;;;0.98;0.68;;;;;;;;;;12696143;23;20101;-85
2023/03/28 10:33:25;;;;;;;3.47;0.90;;;;;;;;;;12698127;23;20336;-85
2023/03/28 10:38:53;;;;;;;1.67;0.60;;;;;;;;;;12697863;23;20033;-84
2023/03/28 10:44:27;;;;;;;2.38;0.73;;;;;;;;;;12713890;23;20053;-86
2023/03/28 10:49:42;;;;;;;;;;;;;;;;;;12694400;23;20344;-87
2023/03/28 10:55:05;;;;;;;2.63;0.75;;;;;;;;;;12694583;23;19996;-84
2023/03/28 11:00:33;;;;;;;1.33;0.50;;;;;;;;;;12722454;23;20098;-83
2023/03/28 11:05:46;;;;;;;0.70;0.38;;;;;;;;;;12696551;23;20045;-83
2023/03/28 11:11:03;;;;;;;0.80;0.40;;;;;;;;;;12698020;23;20378;-83
2023/03/28 11:16:34;;;;;;;1.80;0.70;;;;;;;;;;12700387;23;20426;-84
2023/03/28 11:22:16;;;;;;;1.63;0.50;;;;;;;;;;12702240;23;20088;-84
2023/03/28 11:27:29;;;;;;;1.92;0.47;;;;;;;;;;12704093;23;20101;-85
2023/03/28 11:32:50;;;;;;;0.60;0.40;;;;;;;;;;12701885;23;20021;-85
2023/03/28 11:38:01;;;;;;;0.43;0.30;;;;;;;;;;12707289;23;20108;-85
2023/03/28 11:43:08;;;;;;;0.30;0.30;;;;;;;;;;12708316;23;20088;-84
2023/03/28 11:48:23;;;;;;;0.35;0.35;;;;;;;;;;12697920;23;20026;-82
2023/03/28 11:53:30;;;;;;;1.92;0.85;;;;;;;;;;12693883;23;20026;-84
2023/03/28 11:58:43;;;;;;;1.20;0.50;;;;;;;;;;12693450;23;20519;-83
2023/03/28 12:04:00;;;;;;;0.75;0.20;;;;;;;;;;12694441;23;20041;-84
2023/03/28 12:09:11;;;;;;;0.30;0.30;;;;;;;;;;12691892;23;20104;-84
2023/03/28 12:14:34;;;;;;;1.02;0.55;;;;;;;;;;12692481;23;20505;-84
2023/03/28 12:19:49;;;;;;;1.98;0.60;;;;;;;;;;12682666;23;20033;-84
2023/03/28 12:25:02;;;;;;;2.70;0.63;;;;;;;;;;12725718;23;20542;-83
2023/03/28 12:30:20;;;;;;;2.08;0.70;;;;;;;;;;12695187;23;20405;-82
2023/03/28 12:35:34;;;;;;;3.00;0.70;;;;;;;;;;12699257;23;20026;-85
2023/03/28 12:40:53;;;;;;;1.63;0.55;;;;;;;;;;12697805;23;20025;-84
2023/03/28 12:46:02;;;;;;;1.63;0.63;;;;;;;;;;12698103;23;20021;-85
2023/03/28 12:51:15;;;;;;;2.65;0.88;;;;;;;;;;12707172;23;20029;-85
2023/03/28 12:56:22;;;;;;;1.10;0.40;;;;;;;;;;12709496;23;20482;-85
2023/03/28 13:01:36;;;;;;;1.33;0.63;;;;;;;;;;12710022;23;20018;-83
2023/03/28 13:07:39;;;;;;;2.03;0.75;;;;;;;;;;12716687;22;20257;-80
2023/03/28 13:18:32;;;;;;;1.33;0.47;;;;;;;;;;12731448;22;20022;-83
2023/03/28 13:23:46;;;;;;;1.42;0.40;;;;;;;;;;12699060;23;20018;-84
2023/03/28 13:28:50;;;;;;;2.72;0.80;;;;;;;;;;12728068;23;20052;-85
2023/03/28 13:33:57;;;;;;;1.63;0.80;;;;;;;;;;12691377;23;20029;-83
2023/03/28 13:39:21;;;;;;;1.85;0.80;;;;;;;;;;12691071;23;20057;-83
2023/03/28 13:44:44;;;;;;;1.75;0.90;;;;;;;;;;12695679;23;20025;-84
2023/03/28 13:49:51;;;;;;;2.17;0.50;;;;;;;;;;12723125;23;20514;-84
2023/03/28 13:55:03;;;;;;;1.98;0.80;;;;;;;;;;12722421;23;20025;-84
2023/03/28 14:00:12;;;;;;;1.88;0.80;;;;;;;;;;12695975;23;20029;-86
2023/03/28 14:05:20;;;;;;;1.27;0.80;;;;;;;;;;12725486;23;20710;-85
2023/03/28 14:10:32;;;;;;;2.85;0.80;;;;;;;;;;12700777;23;20026;-85
2023/03/28 14:15:38;;;;;;;2.15;0.73;;;;;;;;;;12694859;23;20026;-85
2023/03/28 14:20:44;;;;;;;2.30;0.98;;;;;;;;;;12699107;23;20031;-84
2023/03/28 14:25:49;;;;;;;1.10;0.60;;;;;;;;;;12699124;23;20040;-84
2023/03/28 14:30:53;;;;;;;1.20;0.70;;;;;;;;;;12700113;23;20025;-86
2023/03/28 14:35:57;;;;;;;0.93;0.70;;;;;;;;;;12698363;23;20080;-84
2023/03/28 14:41:14;;;;;;;1.50;0.82;;;;;;;;;;12698252;23;20033;-84
2023/03/28 14:46:23;;;;;;;1.52;1.13;;;;;;;;;;12699565;23;20096;-84
2023/03/28 14:51:27;;;;;;;5.07;2.28;;;;;;;;;;12698705;23;20029;-84
2023/03/28 14:56:33;;;;;;;3.45;1.42;;;;;;;;;;12698608;23;20025;-84
2023/03/28 15:01:37;;;;;;;1.87;0.90;;;;;;;;;;12743500;23;20025;-85
2023/03/28 15:06:41;;;;;;;0.98;0.60;;;;;;;;;;12697842;23;20033;-88
2023/03/28 15:11:46;;;;;;;2.45;0.95;;;;;;;;;;12698609;23;20563;-86
2023/03/28 15:16:50;;;;;;;2.83;0.80;;;;;;;;;;12698623;23;20080;-87
2023/03/28 15:21:59;;;;;;;1.92;0.82;;;;;;;;;;12723316;23;20022;-84
2023/03/28 15:27:06;;;;;;;1.20;0.73;;;;;;;;;;12725596;23;20089;-87
2023/03/28 15:32:17;;;;;;;2.35;0.98;;;;;;;;;;12698285;23;20118;-85
2023/03/28 15:37:24;;;;;;;4.30;1.60;;;;;;;;;;12696600;23;20100;-84
2023/03/28 15:42:35;;;;;;;2.75;1.30;;;;;;;;;;12739307;23;20506;-85
2023/03/28 15:47:40;;;;;;;3.03;1.17;;;;;;;;;;12697660;23;20079;-83
2023/03/28 15:52:43;;;;;;;2.05;1.00;;;;;;;;;;12696724;23;20108;-84
2023/03/28 15:57:48;;;;;;;1.42;0.90;;;;;;;;;;12738525;23;20029;-85
2023/03/28 16:02:52;;;;;;;0.90;0.55;;;;;;;;;;12697972;23;20337;-84
2023/03/28 16:07:56;;;;;;;2.13;0.80;;;;;;;;;;12698303;23;20032;-85
2023/03/28 16:13:01;;;;;;;1.65;0.70;;;;;;;;;;12737194;23;20026;-84
2023/03/28 16:18:37;;;;;;;0.80;0.60;;;;;;;;;;12699322;23;20080;-86
2023/03/28 16:23:41;;;;;;;1.42;0.88;;;;;;;;;;12696242;23;20021;-84
2023/03/28 16:28:46;;;;;;;1.73;0.80;;;;;;;;;;12695711;23;20037;-84
2023/03/28 16:33:50;;;;;;;2.05;0.90;;;;;;;;;;12696864;23;20029;-84
2023/03/28 16:38:53;;;;;;;1.38;0.65;;;;;;;;;;12693449;23;20084;-82
2023/03/28 16:43:58;;;;;;;2.55;0.90;;;;;;;;;;12692787;23;20030;-83
2023/03/28 16:49:02;;;;;;;1.23;0.65;;;;;;;;;;12694019;23;20025;-82
2023/03/28 16:54:05;;;;;;;2.40;0.60;;;;;;;;;;12696220;23;20034;-82
2023/03/28 16:59:10;;;;;;;0.90;0.50;;;;;;;;;;12698539;23;20029;-84
2023/03/28 17:04:14;;;;;;;2.40;0.70;;;;;;;;;;12699406;23;20603;-84
2023/03/28 17:09:17;;;;;;;2.13;0.90;;;;;;;;;;12727498;23;20025;-84
2023/03/28 17:14:22;;;;;;;2.22;1.10;;;;;;;;;;12701361;23;20455;-84
2023/03/28 17:19:27;;;;;;;1.80;0.90;;;;;;;;;;12728843;23;20029;-84
2023/03/28 17:24:31;;;;;;;2.50;0.90;;;;;;;;;;12719556;23;20021;-85
2023/03/28 17:29:36;;;;;;;2.55;1.08;;;;;;;;;;12693133;23;20025;-85
2023/03/28 17:34:40;;;;;;;2.63;0.80;;;;;;;;;;12695827;23;20029;-84
2023/03/28 17:39:45;;;;;;;1.38;0.80;;;;;;;;;;12697856;23;20026;-83
2023/03/28 17:44:50;;;;;;;2.08;0.65;;;;;;;;;;12701410;23;20029;-86
2023/03/28 17:49:55;;;;;;;1.13;0.80;;;;;;;;;;12700804;23;20093;-84
2023/03/28 17:55:00;;;;;;;0.77;0.50;;;;;;;;;;12701611;23;20029;-85
2023/03/28 18:00:06;;;;;;;2.30;0.93;;;;;;;;;;12702431;23;20030;-85
2023/03/28 18:05:15;;;;;;;1.83;0.82;;;;;;;;;;12727622;23;20018;-84
2023/03/28 18:10:25;;;;;;;2.83;1.30;;;;;;;;;;12697601;23;20048;-82
2023/03/28 18:15:30;;;;;;;2.28;0.88;;;;;;;;;;12697329;23;20021;-83
2023/03/28 18:20:34;;;;;;;3.45;1.35;;;;;;;;;;12698305;23;20045;-83
2023/03/28 18:25:38;;;;;;;2.05;1.05;;;;;;;;;;12697981;23;20026;-82
2023/03/28 18:30:44;;;;;;;3.97;1.95;;;;;;;;;;12726665;23;20030;-83
2023/03/28 18:35:47;;;;;;;4.07;1.23;;;;;;;;;;12697425;23;20021;-83
2023/03/28 18:40:52;;;;;;;2.65;1.45;;;;;;;;;;12698365;23;20025;-83
2023/03/28 18:45:59;;;;;;;3.65;1.40;;;;;;;;;;12700962;23;20103;-84
2023/03/28 18:51:05;;;;;;;4.90;2.10;;;;;;;;;;12699352;23;20104;-84
2023/03/28 18:56:09;;;;;;;5.83;1.90;;;;;;;;;;12699453;23;20446;-84
2023/03/28 19:01:14;;;;;;;2.17;1.60;;;;;;;;;;12725658;23;20062;-85
2023/03/28 19:06:18;;;;;;;3.17;1.73;;;;;;;;;;12697860;23;20044;-85
2023/03/28 19:11:22;;;;;;;2.28;1.23;;;;;;;;;;12709596;23;20029;-85
2023/03/28 19:16:28;;;;;;;1.73;1.23;;;;;;;;;;12708613;23;20041;-86
2023/03/28 19:21:31;;;;;;;2.70;1.58;;;;;;;;;;12735779;23;20049;-86
2023/03/28 19:26:35;;;;;;;2.63;1.30;;;;;;;;;;12712869;23;20459;-85
2023/03/28 19:31:40;;;;;;;1.95;1.00;;;;;;;;;;12720594;23;20021;-81
2023/03/28 19:36:45;;;;;;;2.45;1.17;;;;;;;;;;12714076;23;20025;-82
2023/03/28 19:41:50;;;;;;;3.70;1.42;;;;;;;;;;12711296;23;20025;-81
2023/03/28 19:46:56;;;;;;;2.85;1.25;;;;;;;;;;12732127;23;20025;-81
2023/03/28 19:52:04;;;;;;;2.58;1.10;;;;;;;;;;12706320;23;20022;-81
2023/03/28 19:57:09;;;;;;;1.83;1.10;;;;;;;;;;12705881;23;20045;-81
2023/03/28 20:02:14;;;;;;;1.10;0.77;;;;;;;;;;12707467;23;20465;-82
2023/03/28 20:07:19;;;;;;;2.65;1.10;;;;;;;;;;12734849;23;20072;-82
2023/03/28 20:12:24;;;;;;;2.60;1.00;;;;;;;;;;12706634;23;20025;-81
2023/03/28 20:17:29;;;;;;;1.63;0.88;;;;;;;;;;12705178;23;20092;-80
2023/03/28 20:22:33;;;;;;;3.10;1.23;;;;;;;;;;12732925;23;20394;-81
2023/03/28 20:27:38;;;;;;;1.42;1.17;;;;;;;;;;12709705;23;20044;-81
2023/03/28 20:32:44;;;;;;;0.73;0.73;;;;;;;;;;12708682;23;20029;-82
2023/03/28 20:37:47;;;;;;;;;;;;;;;;;;12710259;23;20036;-81
2023/03/28 20:42:52;;;;;;;0.73;0.68;;;;;;;;;;12732610;23;19975;-81
2023/03/28 20:48:04;;;;;;;1.58;0.82;;;;;;;;;;12706274;23;20056;-81
2023/03/28 20:53:09;;;;;;;1.35;0.80;;;;;;;;;;12748121;23;20026;-80
2023/03/28 20:58:13;;;;;;;0.73;0.70;;;;;;;;;;12706545;23;20125;-82
2023/03/28 21:03:20;;;;;;;3.55;1.10;;;;;;;;;;12732551;23;20483;-81
2023/03/28 21:08:26;;;;;;;1.65;1.20;;;;;;;;;;12707661;23;20040;-81
2023/03/28 21:13:31;;;;;;;1.42;0.82;;;;;;;;;;12708354;23;20037;-82
2023/03/28 21:18:37;;;;;;;0.55;0.55;;;;;;;;;;12749445;23;20080;-81
2023/03/28 21:23:43;;;;;;;2.03;0.70;;;;;;;;;;12712123;23;20022;-82
2023/03/28 21:28:47;;;;;;;1.88;1.05;;;;;;;;;;12711906;23;20029;-82
2023/03/28 21:33:54;;;;;;;2.25;1.15;;;;;;;;;;12715342;23;20029;-81
2023/03/28 21:38:57;;;;;;;1.85;1.00;;;;;;;;;;12720070;23;20029;-81
2023/03/28 21:44:02;;;;;;;2.15;0.90;;;;;;;;;;12719448;23;20105;-81
2023/03/28 21:49:07;;;;;;;1.42;0.85;;;;;;;;;;12721133;23;20018;-81
2023/03/28 21:54:11;;;;;;;1.05;0.63;;;;;;;;;;12718618;23;20048;-82
2023/03/28 21:59:15;;;;;;;0.85;0.70;;;;;;;;;;12751205;23;20083;-81
2023/03/28 22:04:20;;;;;;;1.08;0.70;;;;;;;;;;12751536;23;20108;-81
2023/03/28 22:09:24;;;;;;;1.02;0.80;;;;;;;;;;12725477;23;20067;-81
2023/03/28 22:14:27;;;;;;;3.22;1.00;;;;;;;;;;12711924;23;20026;-82
2023/03/28 22:19:32;;;;;;;1.65;0.47;;;;;;;;;;12749569;23;20032;-81
2023/03/28 22:24:36;;;;;;;1.15;0.70;;;;;;;;;;12737142;23;20025;-81
2023/03/28 22:29:41;;;;;;;1.77;0.82;;;;;;;;;;12711847;23;20054;-82
2023/03/28 22:34:47;;;;;;;0.63;0.63;;;;;;;;;;12712492;23;20029;-82
2023/03/28 22:39:51;;;;;;;1.00;0.80;;;;;;;;;;12713362;23;20021;-82
2023/03/28 22:44:55;;;;;;;1.15;0.60;;;;;;;;;;12711348;23;20030;-83
2023/03/28 22:50:01;;;;;;;0.90;0.80;;;;;;;;;;12712961;23;20040;-82
2023/03/28 22:55:05;;;;;;;1.67;0.60;;;;;;;;;;12714810;23;20096;-81
2023/03/28 23:00:11;;;;;;;0.82;0.80;;;;;;;;;;12720279;23;20021;-81
2023/03/28 23:05:16;;;;;;;0.70;0.70;;;;;;;;;;12719418;23;20036;-81
2023/03/28 23:10:21;;;;;;;0.80;0.68;;;;;;;;;;12747863;23;20281;-82
2023/03/28 23:15:25;;;;;;;1.10;0.80;;;;;;;;;;12756937;23;20029;-81
2023/03/28 23:20:30;;;;;;;0.75;0.70;;;;;;;;;;12730610;23;20037;-82
2023/03/28 23:25:34;;;;;;;1.63;0.63;;;;;;;;;;12730293;23;20060;-82
2023/03/28 23:30:39;;;;;;;0.90;0.80;;;;;;;;;;12734354;23;20036;-82
2023/03/28 23:35:46;;;;;;;1.65;0.65;;;;;;;;;;12756918;23;20022;-82
2023/03/28 23:40:49;;;;;;;0.80;0.80;;;;;;;;;;12729068;23;20018;-81
2023/03/28 23:45:53;;;;;;;0.95;0.90;;;;;;;;;;12712245;23;20055;-80
2023/03/28 23:51:00;;;;;;;1.30;0.80;;;;;;;;;;12741065;23;20086;-82
2023/03/28 23:56:04;;;;;;;1.25;0.65;;;;;;;;;;12712943;23;20029;-83
